sensor_id;sensor_type;location;lat;lon;timestamp;P1;durP1;ratioP1;P2;durP2;ratioP2
76437;SDS011;65273;43.198;0.118;2023-06-14T00:01:46;17.67;;;16.77;;
76437;SDS011;65273;43.198;0.118;2023-06-14T00:04:12;17.55;;;16.65;;
76437;SDS011;65273;43.198;0.118;2023-06-14T00:06:38;17.92;;;17.02;;
76437;SDS011;65273;43.198;0.118;2023-06-14T00:09:03;17.65;;;16.75;;
76437;SDS011;65273;43.198;0.118;2023-06-14T00:11:30;18.27;;;17.27;;
76437;SDS011;65273;43.198;0.118;2023-06-14T00:13:55;17.67;;;16.77;;
76437;SDS011;65273;43.198;0.118;2023-06-14T00:16:21;17.80;;;16.90;;
76437;SDS011;65273;43.198;0.118;2023-06-14T00:18:46;17.33;;;16.42;;
76437;SDS011;65273;43.198;0.118;2023-06-14T00:21:12;17.48;;;16.58;;
76437;SDS011;65273;43.198;0.118;2023-06-14T00:23:37;17.60;;;16.70;;
76437;SDS011;65273;43.198;0.118;2023-06-14T00:26:02;17.77;;;16.85;;
76437;SDS011;65273;43.198;0.118;2023-06-14T00:28:28;17.98;;;16.95;;
76437;SDS011;65273;43.198;0.118;2023-06-14T00:30:53;17.77;;;16.88;;
76437;SDS011;65273;43.198;0.118;2023-06-14T00:33:18;18.30;;;17.30;;
76437;SDS011;65273;43.198;0.118;2023-06-14T00:35:44;18.23;;;17.23;;
76437;SDS011;65273;43.198;0.118;2023-06-14T00:38:09;18.55;;;17.55;;
76437;SDS011;65273;43.198;0.118;2023-06-14T00:40:34;18.10;;;17.10;;
76437;SDS011;65273;43.198;0.118;2023-06-14T00:43:00;17.98;;;16.98;;
76437;SDS011;65273;43.198;0.118;2023-06-14T00:45:25;17.60;;;16.70;;
76437;SDS011;65273;43.198;0.118;2023-06-14T00:47:50;18.00;;;16.95;;
76437;SDS011;65273;43.198;0.118;2023-06-14T00:50:18;18.02;;;17.02;;
76437;SDS011;65273;43.198;0.118;2023-06-14T00:52:44;17.55;;;16.63;;
76437;SDS011;65273;43.198;0.118;2023-06-14T00:55:10;18.65;;;17.65;;
76437;SDS011;65273;43.198;0.118;2023-06-14T00:57:35;17.60;;;16.70;;
76437;SDS011;65273;43.198;0.118;2023-06-14T01:00:03;18.17;;;17.20;;
76437;SDS011;65273;43.198;0.118;2023-06-14T01:02:29;18.50;;;17.50;;
76437;SDS011;65273;43.198;0.118;2023-06-14T01:04:55;17.88;;;16.88;;
76437;SDS011;65273;43.198;0.118;2023-06-14T01:07:25;17.88;;;16.98;;
76437;SDS011;65273;43.198;0.118;2023-06-14T01:15:05;18.55;;;17.45;;
76437;SDS011;65273;43.198;0.118;2023-06-14T01:17:31;17.98;;;16.98;;
76437;SDS011;65273;43.198;0.118;2023-06-14T01:20:06;18.48;;;17.42;;
76437;SDS011;65273;43.198;0.118;2023-06-14T01:22:35;19.02;;;17.92;;
76437;SDS011;65273;43.198;0.118;2023-06-14T01:25:00;17.80;;;16.90;;
76437;SDS011;65273;43.198;0.118;2023-06-14T01:27:26;18.92;;;17.48;;
76437;SDS011;65273;43.198;0.118;2023-06-14T01:29:54;17.77;;;16.88;;
76437;SDS011;65273;43.198;0.118;2023-06-14T01:32:21;17.90;;;16.90;;
76437;SDS011;65273;43.198;0.118;2023-06-14T01:34:46;18.58;;;17.58;;
76437;SDS011;65273;43.198;0.118;2023-06-14T01:37:12;17.70;;;16.80;;
76437;SDS011;65273;43.198;0.118;2023-06-14T01:39:38;18.13;;;17.13;;
76437;SDS011;65273;43.198;0.118;2023-06-14T01:42:04;17.80;;;16.83;;
76437;SDS011;65273;43.198;0.118;2023-06-14T01:44:30;18.25;;;17.25;;
76437;SDS011;65273;43.198;0.118;2023-06-14T01:46:55;18.48;;;17.38;;
76437;SDS011;65273;43.198;0.118;2023-06-14T01:49:21;18.08;;;17.10;;
76437;SDS011;65273;43.198;0.118;2023-06-14T01:51:46;18.02;;;17.02;;
76437;SDS011;65273;43.198;0.118;2023-06-14T01:54:11;18.42;;;17.42;;
76437;SDS011;65273;43.198;0.118;2023-06-14T01:56:37;17.90;;;16.98;;
76437;SDS011;65273;43.198;0.118;2023-06-14T01:59:02;18.25;;;17.25;;
76437;SDS011;65273;43.198;0.118;2023-06-14T02:01:28;18.33;;;17.33;;
76437;SDS011;65273;43.198;0.118;2023-06-14T02:03:53;17.95;;;16.95;;
76437;SDS011;65273;43.198;0.118;2023-06-14T02:06:19;18.30;;;17.30;;
76437;SDS011;65273;43.198;0.118;2023-06-14T02:08:44;18.70;;;17.60;;
76437;SDS011;65273;43.198;0.118;2023-06-14T02:11:09;18.52;;;17.40;;
76437;SDS011;65273;43.198;0.118;2023-06-14T02:13:35;18.85;;;17.85;;
76437;SDS011;65273;43.198;0.118;2023-06-14T02:16:00;18.65;;;17.55;;
76437;SDS011;65273;43.198;0.118;2023-06-14T02:18:26;18.38;;;17.38;;
76437;SDS011;65273;43.198;0.118;2023-06-14T02:20:51;18.33;;;17.33;;
76437;SDS011;65273;43.198;0.118;2023-06-14T02:23:17;18.17;;;17.20;;
76437;SDS011;65273;43.198;0.118;2023-06-14T02:25:42;18.45;;;17.45;;
76437;SDS011;65273;43.198;0.118;2023-06-14T02:28:09;17.98;;;16.98;;
76437;SDS011;65273;43.198;0.118;2023-06-14T02:30:35;18.33;;;17.33;;
76437;SDS011;65273;43.198;0.118;2023-06-14T02:33:00;18.40;;;17.35;;
76437;SDS011;65273;43.198;0.118;2023-06-14T02:35:25;18.20;;;17.23;;
76437;SDS011;65273;43.198;0.118;2023-06-14T02:37:52;18.25;;;17.25;;
76437;SDS011;65273;43.198;0.118;2023-06-14T02:40:17;18.55;;;17.55;;
76437;SDS011;65273;43.198;0.118;2023-06-14T02:42:43;18.77;;;17.77;;
76437;SDS011;65273;43.198;0.118;2023-06-14T02:45:08;19.20;;;17.88;;
76437;SDS011;65273;43.198;0.118;2023-06-14T02:47:34;19.13;;;17.88;;
76437;SDS011;65273;43.198;0.118;2023-06-14T02:49:59;18.35;;;17.38;;
76437;SDS011;65273;43.198;0.118;2023-06-14T02:52:24;18.30;;;17.30;;
76437;SDS011;65273;43.198;0.118;2023-06-14T02:54:50;18.83;;;17.77;;
76437;SDS011;65273;43.198;0.118;2023-06-14T02:57:15;18.80;;;17.58;;
76437;SDS011;65273;43.198;0.118;2023-06-14T02:59:41;18.73;;;17.73;;
76437;SDS011;65273;43.198;0.118;2023-06-14T03:02:06;18.30;;;17.30;;
76437;SDS011;65273;43.198;0.118;2023-06-14T03:04:31;18.38;;;17.38;;
76437;SDS011;65273;43.198;0.118;2023-06-14T03:07:02;18.30;;;17.30;;
76437;SDS011;65273;43.198;0.118;2023-06-14T03:09:27;18.73;;;17.73;;
76437;SDS011;65273;43.198;0.118;2023-06-14T03:11:53;19.05;;;17.95;;
76437;SDS011;65273;43.198;0.118;2023-06-14T03:14:19;18.83;;;17.83;;
76437;SDS011;65273;43.198;0.118;2023-06-14T03:16:44;18.02;;;17.02;;
76437;SDS011;65273;43.198;0.118;2023-06-14T03:19:10;18.38;;;17.38;;
76437;SDS011;65273;43.198;0.118;2023-06-14T03:21:35;18.50;;;17.40;;
76437;SDS011;65273;43.198;0.118;2023-06-14T03:24:01;18.60;;;17.60;;
76437;SDS011;65273;43.198;0.118;2023-06-14T03:26:28;18.67;;;17.67;;
76437;SDS011;65273;43.198;0.118;2023-06-14T03:28:56;17.73;;;16.83;;
76437;SDS011;65273;43.198;0.118;2023-06-14T03:31:21;18.42;;;17.42;;
76437;SDS011;65273;43.198;0.118;2023-06-14T03:33:47;18.27;;;17.27;;
76437;SDS011;65273;43.198;0.118;2023-06-14T03:36:12;18.45;;;17.45;;
76437;SDS011;65273;43.198;0.118;2023-06-14T03:38:37;19.02;;;17.88;;
76437;SDS011;65273;43.198;0.118;2023-06-14T03:41:02;19.25;;;18.15;;
76437;SDS011;65273;43.198;0.118;2023-06-14T03:43:28;18.27;;;17.27;;
76437;SDS011;65273;43.198;0.118;2023-06-14T03:45:55;18.60;;;17.60;;
76437;SDS011;65273;43.198;0.118;2023-06-14T03:48:20;18.35;;;17.35;;
76437;SDS011;65273;43.198;0.118;2023-06-14T03:50:45;18.30;;;17.10;;
76437;SDS011;65273;43.198;0.118;2023-06-14T03:53:11;18.50;;;17.50;;
76437;SDS011;65273;43.198;0.118;2023-06-14T03:55:36;18.05;;;17.13;;
76437;SDS011;65273;43.198;0.118;2023-06-14T03:58:02;18.50;;;17.40;;
76437;SDS011;65273;43.198;0.118;2023-06-14T04:00:28;18.40;;;17.40;;
76437;SDS011;65273;43.198;0.118;2023-06-14T04:02:53;18.45;;;17.45;;
76437;SDS011;65273;43.198;0.118;2023-06-14T04:05:19;18.60;;;17.50;;
76437;SDS011;65273;43.198;0.118;2023-06-14T04:07:45;18.92;;;17.92;;
76437;SDS011;65273;43.198;0.118;2023-06-14T04:10:13;18.05;;;17.05;;
76437;SDS011;65273;43.198;0.118;2023-06-14T04:12:39;18.52;;;17.52;;
76437;SDS011;65273;43.198;0.118;2023-06-14T04:15:05;18.85;;;17.85;;
76437;SDS011;65273;43.198;0.118;2023-06-14T04:17:33;18.63;;;17.45;;
76437;SDS011;65273;43.198;0.118;2023-06-14T04:19:59;18.20;;;17.20;;
76437;SDS011;65273;43.198;0.118;2023-06-14T04:22:25;18.63;;;17.55;;
76437;SDS011;65273;43.198;0.118;2023-06-14T04:24:53;18.73;;;17.73;;
76437;SDS011;65273;43.198;0.118;2023-06-14T04:27:20;17.75;;;16.85;;
76437;SDS011;65273;43.198;0.118;2023-06-14T04:29:46;18.13;;;17.17;;
76437;SDS011;65273;43.198;0.118;2023-06-14T04:32:18;19.23;;;17.77;;
76437;SDS011;65273;43.198;0.118;2023-06-14T04:34:43;17.95;;;17.05;;
76437;SDS011;65273;43.198;0.118;2023-06-14T04:37:09;18.48;;;17.48;;
76437;SDS011;65273;43.198;0.118;2023-06-14T04:39:34;19.60;;;18.50;;
76437;SDS011;65273;43.198;0.118;2023-06-14T04:42:00;18.15;;;17.15;;
76437;SDS011;65273;43.198;0.118;2023-06-14T04:44:25;17.92;;;16.98;;
76437;SDS011;65273;43.198;0.118;2023-06-14T04:46:55;18.88;;;17.88;;
76437;SDS011;65273;43.198;0.118;2023-06-14T04:49:21;18.25;;;17.25;;
76437;SDS011;65273;43.198;0.118;2023-06-14T04:51:48;18.55;;;17.55;;
76437;SDS011;65273;43.198;0.118;2023-06-14T04:54:16;18.30;;;17.30;;
76437;SDS011;65273;43.198;0.118;2023-06-14T04:56:41;18.52;;;17.52;;
76437;SDS011;65273;43.198;0.118;2023-06-14T04:59:11;18.27;;;17.27;;
76437;SDS011;65273;43.198;0.118;2023-06-14T05:01:37;18.08;;;17.15;;
76437;SDS011;65273;43.198;0.118;2023-06-14T05:04:03;18.33;;;17.27;;
76437;SDS011;65273;43.198;0.118;2023-06-14T05:06:28;18.52;;;17.42;;
76437;SDS011;65273;43.198;0.118;2023-06-14T05:08:54;18.38;;;17.38;;
76437;SDS011;65273;43.198;0.118;2023-06-14T05:11:20;17.88;;;16.92;;
76437;SDS011;65273;43.198;0.118;2023-06-14T05:13:45;18.27;;;17.27;;
76437;SDS011;65273;43.198;0.118;2023-06-14T05:16:11;18.00;;;17.08;;
76437;SDS011;65273;43.198;0.118;2023-06-14T05:18:37;18.73;;;17.73;;
76437;SDS011;65273;43.198;0.118;2023-06-14T05:21:03;18.42;;;17.42;;
76437;SDS011;65273;43.198;0.118;2023-06-14T05:23:30;18.60;;;17.55;;
76437;SDS011;65273;43.198;0.118;2023-06-14T05:25:55;18.20;;;17.25;;
76437;SDS011;65273;43.198;0.118;2023-06-14T05:28:21;18.30;;;17.30;;
76437;SDS011;65273;43.198;0.118;2023-06-14T05:30:47;18.60;;;17.60;;
76437;SDS011;65273;43.198;0.118;2023-06-14T05:33:12;18.67;;;17.67;;
76437;SDS011;65273;43.198;0.118;2023-06-14T05:35:37;18.58;;;17.58;;
76437;SDS011;65273;43.198;0.118;2023-06-14T05:38:03;18.27;;;17.27;;
76437;SDS011;65273;43.198;0.118;2023-06-14T05:40:28;18.60;;;17.60;;
76437;SDS011;65273;43.198;0.118;2023-06-14T05:42:53;19.00;;;17.90;;
76437;SDS011;65273;43.198;0.118;2023-06-14T05:45:19;18.58;;;17.58;;
76437;SDS011;65273;43.198;0.118;2023-06-14T05:47:44;19.50;;;18.40;;
76437;SDS011;65273;43.198;0.118;2023-06-14T05:50:09;18.63;;;17.63;;
76437;SDS011;65273;43.198;0.118;2023-06-14T05:52:35;18.13;;;17.13;;
76437;SDS011;65273;43.198;0.118;2023-06-14T05:55:02;18.70;;;17.70;;
76437;SDS011;65273;43.198;0.118;2023-06-14T05:57:27;18.60;;;17.60;;
76437;SDS011;65273;43.198;0.118;2023-06-14T05:59:52;18.33;;;17.30;;
76437;SDS011;65273;43.198;0.118;2023-06-14T06:02:18;19.15;;;18.05;;
76437;SDS011;65273;43.198;0.118;2023-06-14T06:04:43;18.55;;;17.55;;
76437;SDS011;65273;43.198;0.118;2023-06-14T06:07:08;18.98;;;17.98;;
76437;SDS011;65273;43.198;0.118;2023-06-14T06:09:33;19.52;;;18.45;;
76437;SDS011;65273;43.198;0.118;2023-06-14T06:11:59;18.58;;;17.58;;
76437;SDS011;65273;43.198;0.118;2023-06-14T06:14:24;18.92;;;17.92;;
76437;SDS011;65273;43.198;0.118;2023-06-14T06:16:50;18.83;;;17.83;;
76437;SDS011;65273;43.198;0.118;2023-06-14T06:19:15;19.33;;;18.23;;
76437;SDS011;65273;43.198;0.118;2023-06-14T06:21:40;19.08;;;18.08;;
76437;SDS011;65273;43.198;0.118;2023-06-14T06:24:06;18.80;;;17.80;;
76437;SDS011;65273;43.198;0.118;2023-06-14T06:26:31;19.05;;;18.02;;
76437;SDS011;65273;43.198;0.118;2023-06-14T06:28:57;19.42;;;18.27;;
76437;SDS011;65273;43.198;0.118;2023-06-14T06:31:23;19.65;;;18.55;;
76437;SDS011;65273;43.198;0.118;2023-06-14T06:33:48;19.45;;;18.35;;
76437;SDS011;65273;43.198;0.118;2023-06-14T06:36:13;18.67;;;17.67;;
76437;SDS011;65273;43.198;0.118;2023-06-14T06:38:38;19.52;;;18.42;;
76437;SDS011;65273;43.198;0.118;2023-06-14T06:41:04;19.75;;;18.65;;
76437;SDS011;65273;43.198;0.118;2023-06-14T06:43:29;19.25;;;18.15;;
76437;SDS011;65273;43.198;0.118;2023-06-14T06:45:54;18.95;;;17.95;;
76437;SDS011;65273;43.198;0.118;2023-06-14T06:48:20;19.08;;;17.98;;
76437;SDS011;65273;43.198;0.118;2023-06-14T06:50:45;20.13;;;19.02;;
76437;SDS011;65273;43.198;0.118;2023-06-14T06:53:10;19.40;;;18.30;;
76437;SDS011;65273;43.198;0.118;2023-06-14T06:55:36;20.50;;;19.08;;
76437;SDS011;65273;43.198;0.118;2023-06-14T06:58:01;19.92;;;18.83;;
76437;SDS011;65273;43.198;0.118;2023-06-14T07:00:29;19.80;;;18.70;;
76437;SDS011;65273;43.198;0.118;2023-06-14T07:02:55;21.05;;;19.65;;
76437;SDS011;65273;43.198;0.118;2023-06-14T07:05:20;19.88;;;18.75;;
76437;SDS011;65273;43.198;0.118;2023-06-14T07:07:45;19.67;;;18.58;;
76437;SDS011;65273;43.198;0.118;2023-06-14T07:10:11;19.77;;;18.65;;
76437;SDS011;65273;43.198;0.118;2023-06-14T07:12:36;19.33;;;18.27;;
76437;SDS011;65273;43.198;0.118;2023-06-14T07:15:04;20.02;;;18.83;;
76437;SDS011;65273;43.198;0.118;2023-06-14T07:17:30;19.52;;;18.42;;
76437;SDS011;65273;43.198;0.118;2023-06-14T07:19:55;20.05;;;18.95;;
76437;SDS011;65273;43.198;0.118;2023-06-14T07:22:20;19.83;;;18.73;;
76437;SDS011;65273;43.198;0.118;2023-06-14T07:24:46;19.52;;;18.45;;
76437;SDS011;65273;43.198;0.118;2023-06-14T07:27:11;19.92;;;18.83;;
76437;SDS011;65273;43.198;0.118;2023-06-14T07:29:38;20.73;;;19.63;;
76437;SDS011;65273;43.198;0.118;2023-06-14T07:32:03;20.33;;;19.13;;
76437;SDS011;65273;43.198;0.118;2023-06-14T07:34:29;20.10;;;19.00;;
76437;SDS011;65273;43.198;0.118;2023-06-14T07:36:54;20.17;;;18.98;;
76437;SDS011;65273;43.198;0.118;2023-06-14T07:39:19;19.42;;;18.35;;
76437;SDS011;65273;43.198;0.118;2023-06-14T07:41:45;20.52;;;19.33;;
76437;SDS011;65273;43.198;0.118;2023-06-14T07:44:10;20.45;;;19.00;;
76437;SDS011;65273;43.198;0.118;2023-06-14T07:46:37;19.45;;;18.35;;
76437;SDS011;65273;43.198;0.118;2023-06-14T07:49:03;20.13;;;19.02;;
76437;SDS011;65273;43.198;0.118;2023-06-14T07:51:28;19.98;;;18.73;;
76437;SDS011;65273;43.198;0.118;2023-06-14T07:53:53;19.73;;;18.60;;
76437;SDS011;65273;43.198;0.118;2023-06-14T07:56:19;19.80;;;18.70;;
76437;SDS011;65273;43.198;0.118;2023-06-14T07:58:44;19.90;;;18.80;;
76437;SDS011;65273;43.198;0.118;2023-06-14T08:01:09;20.30;;;19.10;;
76437;SDS011;65273;43.198;0.118;2023-06-14T08:03:35;20.00;;;18.90;;
76437;SDS011;65273;43.198;0.118;2023-06-14T08:06:00;19.90;;;18.80;;
76437;SDS011;65273;43.198;0.118;2023-06-14T08:08:26;19.83;;;18.73;;
76437;SDS011;65273;43.198;0.118;2023-06-14T08:10:52;20.50;;;19.30;;
76437;SDS011;65273;43.198;0.118;2023-06-14T08:13:17;20.60;;;19.40;;
76437;SDS011;65273;43.198;0.118;2023-06-14T08:15:42;19.80;;;18.70;;
76437;SDS011;65273;43.198;0.118;2023-06-14T08:18:07;20.50;;;19.27;;
76437;SDS011;65273;43.198;0.118;2023-06-14T08:20:33;20.10;;;18.90;;
76437;SDS011;65273;43.198;0.118;2023-06-14T08:22:59;20.77;;;19.48;;
76437;SDS011;65273;43.198;0.118;2023-06-14T08:25:25;20.60;;;19.30;;
76437;SDS011;65273;43.198;0.118;2023-06-14T08:27:51;20.58;;;19.13;;
76437;SDS011;65273;43.198;0.118;2023-06-14T08:30:16;20.98;;;19.67;;
76437;SDS011;65273;43.198;0.118;2023-06-14T08:32:42;20.08;;;18.88;;
76437;SDS011;65273;43.198;0.118;2023-06-14T08:35:08;19.98;;;18.80;;
76437;SDS011;65273;43.198;0.118;2023-06-14T08:37:33;19.90;;;18.80;;
76437;SDS011;65273;43.198;0.118;2023-06-14T08:40:02;20.02;;;18.92;;
76437;SDS011;65273;43.198;0.118;2023-06-14T08:42:30;21.58;;;20.27;;
76437;SDS011;65273;43.198;0.118;2023-06-14T08:44:57;20.10;;;18.90;;
76437;SDS011;65273;43.198;0.118;2023-06-14T08:47:22;21.05;;;19.80;;
76437;SDS011;65273;43.198;0.118;2023-06-14T08:49:50;19.80;;;18.70;;
76437;SDS011;65273;43.198;0.118;2023-06-14T08:52:17;20.13;;;19.00;;
76437;SDS011;65273;43.198;0.118;2023-06-14T08:54:45;20.35;;;19.25;;
76437;SDS011;65273;43.198;0.118;2023-06-14T08:57:13;19.35;;;18.35;;
76437;SDS011;65273;43.198;0.118;2023-06-14T08:59:40;20.50;;;19.30;;
76437;SDS011;65273;43.198;0.118;2023-06-14T09:02:10;19.52;;;18.45;;
76437;SDS011;65273;43.198;0.118;2023-06-14T09:04:38;20.05;;;18.92;;
76437;SDS011;65273;43.198;0.118;2023-06-14T09:07:04;19.85;;;18.75;;
76437;SDS011;65273;43.198;0.118;2023-06-14T09:09:31;20.90;;;19.70;;
76437;SDS011;65273;43.198;0.118;2023-06-14T09:11:56;19.85;;;18.75;;
76437;SDS011;65273;43.198;0.118;2023-06-14T09:14:23;20.27;;;19.08;;
76437;SDS011;65273;43.198;0.118;2023-06-14T09:16:52;20.25;;;18.85;;
76437;SDS011;65273;43.198;0.118;2023-06-14T09:19:24;20.27;;;19.17;;
76437;SDS011;65273;43.198;0.118;2023-06-14T09:21:49;19.63;;;18.52;;
76437;SDS011;65273;43.198;0.118;2023-06-14T09:24:17;19.48;;;18.38;;
76437;SDS011;65273;43.198;0.118;2023-06-14T09:26:43;19.58;;;18.48;;
76437;SDS011;65273;43.198;0.118;2023-06-14T09:29:09;19.65;;;18.60;;
76437;SDS011;65273;43.198;0.118;2023-06-14T09:31:35;19.92;;;18.83;;
76437;SDS011;65273;43.198;0.118;2023-06-14T09:34:01;19.80;;;18.70;;
76437;SDS011;65273;43.198;0.118;2023-06-14T09:36:27;19.83;;;18.73;;
76437;SDS011;65273;43.198;0.118;2023-06-14T09:38:59;20.23;;;19.13;;
76437;SDS011;65273;43.198;0.118;2023-06-14T09:41:32;20.15;;;18.95;;
76437;SDS011;65273;43.198;0.118;2023-06-14T09:44:00;20.77;;;19.58;;
76437;SDS011;65273;43.198;0.118;2023-06-14T09:46:27;20.35;;;19.25;;
76437;SDS011;65273;43.198;0.118;2023-06-14T09:48:53;20.10;;;19.00;;
76437;SDS011;65273;43.198;0.118;2023-06-14T09:51:18;20.80;;;19.60;;
76437;SDS011;65273;43.198;0.118;2023-06-14T09:53:46;20.20;;;19.10;;
76437;SDS011;65273;43.198;0.118;2023-06-14T09:56:11;20.15;;;19.05;;
76437;SDS011;65273;43.198;0.118;2023-06-14T09:58:38;19.73;;;18.63;;
76437;SDS011;65273;43.198;0.118;2023-06-14T10:01:04;19.85;;;18.75;;
76437;SDS011;65273;43.198;0.118;2023-06-14T10:03:31;20.38;;;19.23;;
76437;SDS011;65273;43.198;0.118;2023-06-14T10:05:58;20.10;;;19.00;;
76437;SDS011;65273;43.198;0.118;2023-06-14T10:08:27;20.23;;;19.13;;
76437;SDS011;65273;43.198;0.118;2023-06-14T10:10:53;20.23;;;19.13;;
76437;SDS011;65273;43.198;0.118;2023-06-14T10:13:18;20.00;;;18.90;;
76437;SDS011;65273;43.198;0.118;2023-06-14T10:21:00;21.02;;;19.73;;
76437;SDS011;65273;43.198;0.118;2023-06-14T10:23:29;20.02;;;18.92;;
76437;SDS011;65273;43.198;0.118;2023-06-14T10:25:58;20.73;;;19.58;;
76437;SDS011;65273;43.198;0.118;2023-06-14T10:28:25;19.95;;;18.85;;
76437;SDS011;65273;43.198;0.118;2023-06-14T10:31:12;20.75;;;19.27;;
76437;SDS011;65273;43.198;0.118;2023-06-14T10:33:39;20.65;;;19.55;;
76437;SDS011;65273;43.198;0.118;2023-06-14T10:41:54;19.75;;;18.65;;
76437;SDS011;65273;43.198;0.118;2023-06-14T10:46:46;20.17;;;19.08;;
76437;SDS011;65273;43.198;0.118;2023-06-14T10:49:11;20.50;;;19.40;;
76437;SDS011;65273;43.198;0.118;2023-06-14T10:51:41;21.30;;;20.10;;
76437;SDS011;65273;43.198;0.118;2023-06-14T10:54:11;20.40;;;19.20;;
76437;SDS011;65273;43.198;0.118;2023-06-14T10:56:36;20.80;;;19.60;;
76437;SDS011;65273;43.198;0.118;2023-06-14T10:59:02;20.20;;;19.10;;
76437;SDS011;65273;43.198;0.118;2023-06-14T11:01:37;20.02;;;18.92;;
76437;SDS011;65273;43.198;0.118;2023-06-14T11:04:10;20.42;;;19.33;;
76437;SDS011;65273;43.198;0.118;2023-06-14T11:09:14;20.33;;;19.23;;
76437;SDS011;65273;43.198;0.118;2023-06-14T11:11:45;20.33;;;19.13;;
76437;SDS011;65273;43.198;0.118;2023-06-14T11:14:11;20.70;;;19.50;;
76437;SDS011;65273;43.198;0.118;2023-06-14T11:16:36;20.52;;;19.42;;
76437;SDS011;65273;43.198;0.118;2023-06-14T11:19:02;20.20;;;19.10;;
76437;SDS011;65273;43.198;0.118;2023-06-14T11:21:31;20.70;;;19.60;;
76437;SDS011;65273;43.198;0.118;2023-06-14T11:23:58;20.77;;;19.58;;
76437;SDS011;65273;43.198;0.118;2023-06-14T11:28:54;19.85;;;18.75;;
76437;SDS011;65273;43.198;0.118;2023-06-14T11:31:20;20.65;;;19.55;;
76437;SDS011;65273;43.198;0.118;2023-06-14T11:33:48;20.30;;;19.20;;
76437;SDS011;65273;43.198;0.118;2023-06-14T11:36:15;20.35;;;19.10;;
76437;SDS011;65273;43.198;0.118;2023-06-14T11:38:40;20.00;;;18.90;;
76437;SDS011;65273;43.198;0.118;2023-06-14T11:41:05;20.02;;;18.92;;
76437;SDS011;65273;43.198;0.118;2023-06-14T11:43:31;20.08;;;18.98;;
76437;SDS011;65273;43.198;0.118;2023-06-14T11:45:58;20.27;;;19.17;;
76437;SDS011;65273;43.198;0.118;2023-06-14T11:48:35;20.50;;;19.30;;
76437;SDS011;65273;43.198;0.118;2023-06-14T11:51:00;20.25;;;19.15;;
76437;SDS011;65273;43.198;0.118;2023-06-14T11:53:25;20.30;;;19.20;;
76437;SDS011;65273;43.198;0.118;2023-06-14T11:55:51;20.55;;;19.35;;
76437;SDS011;65273;43.198;0.118;2023-06-14T11:58:16;20.20;;;19.10;;
76437;SDS011;65273;43.198;0.118;2023-06-14T12:00:42;19.85;;;18.75;;
76437;SDS011;65273;43.198;0.118;2023-06-14T12:03:07;20.17;;;19.08;;
76437;SDS011;65273;43.198;0.118;2023-06-14T12:05:32;20.05;;;18.95;;
76437;SDS011;65273;43.198;0.118;2023-06-14T12:07:58;20.40;;;19.30;;
76437;SDS011;65273;43.198;0.118;2023-06-14T12:10:25;20.48;;;19.38;;
76437;SDS011;65273;43.198;0.118;2023-06-14T12:12:50;20.52;;;19.33;;
76437;SDS011;65273;43.198;0.118;2023-06-14T12:15:15;20.60;;;19.50;;
76437;SDS011;65273;43.198;0.118;2023-06-14T12:17:42;19.95;;;18.85;;
76437;SDS011;65273;43.198;0.118;2023-06-14T12:20:08;20.42;;;19.33;;
76437;SDS011;65273;43.198;0.118;2023-06-14T12:22:38;21.10;;;19.67;;
76437;SDS011;65273;43.198;0.118;2023-06-14T12:25:04;20.27;;;19.17;;
76437;SDS011;65273;43.198;0.118;2023-06-14T12:27:30;20.35;;;19.25;;
76437;SDS011;65273;43.198;0.118;2023-06-14T12:30:02;20.38;;;19.27;;
76437;SDS011;65273;43.198;0.118;2023-06-14T12:32:28;20.23;;;19.13;;
76437;SDS011;65273;43.198;0.118;2023-06-14T12:34:53;20.50;;;19.20;;
76437;SDS011;65273;43.198;0.118;2023-06-14T12:37:18;21.55;;;20.35;;
76437;SDS011;65273;43.198;0.118;2023-06-14T12:39:44;20.60;;;19.50;;
76437;SDS011;65273;43.198;0.118;2023-06-14T12:42:09;20.35;;;19.25;;
76437;SDS011;65273;43.198;0.118;2023-06-14T12:44:34;20.55;;;19.45;;
76437;SDS011;65273;43.198;0.118;2023-06-14T12:47:05;20.73;;;19.63;;
76437;SDS011;65273;43.198;0.118;2023-06-14T12:49:30;20.90;;;19.75;;
76437;SDS011;65273;43.198;0.118;2023-06-14T12:51:56;21.08;;;19.88;;
76437;SDS011;65273;43.198;0.118;2023-06-14T12:54:21;20.70;;;19.60;;
76437;SDS011;65273;43.198;0.118;2023-06-14T12:56:50;21.30;;;20.10;;
76437;SDS011;65273;43.198;0.118;2023-06-14T12:59:16;21.42;;;20.13;;
76437;SDS011;65273;43.198;0.118;2023-06-14T13:01:42;20.73;;;19.60;;
76437;SDS011;65273;43.198;0.118;2023-06-14T13:04:07;21.02;;;19.83;;
76437;SDS011;65273;43.198;0.118;2023-06-14T13:06:32;21.27;;;19.98;;
76437;SDS011;65273;43.198;0.118;2023-06-14T13:08:58;21.75;;;20.55;;
76437;SDS011;65273;43.198;0.118;2023-06-14T13:11:24;20.88;;;19.67;;
76437;SDS011;65273;43.198;0.118;2023-06-14T13:13:49;20.90;;;19.75;;
76437;SDS011;65273;43.198;0.118;2023-06-14T13:16:14;21.33;;;20.13;;
76437;SDS011;65273;43.198;0.118;2023-06-14T13:18:40;21.73;;;20.52;;
76437;SDS011;65273;43.198;0.118;2023-06-14T13:21:05;21.35;;;20.15;;
76437;SDS011;65273;43.198;0.118;2023-06-14T13:23:30;21.55;;;20.35;;
76437;SDS011;65273;43.198;0.118;2023-06-14T13:25:55;21.77;;;20.38;;
76437;SDS011;65273;43.198;0.118;2023-06-14T13:28:21;21.15;;;19.95;;
76437;SDS011;65273;43.198;0.118;2023-06-14T13:30:47;22.00;;;20.63;;
76437;SDS011;65273;43.198;0.118;2023-06-14T13:33:13;21.80;;;20.60;;
76437;SDS011;65273;43.198;0.118;2023-06-14T13:35:38;21.42;;;20.23;;
76437;SDS011;65273;43.198;0.118;2023-06-14T13:38:03;22.55;;;20.92;;
76437;SDS011;65273;43.198;0.118;2023-06-14T13:40:32;21.50;;;20.20;;
76437;SDS011;65273;43.198;0.118;2023-06-14T13:42:57;21.25;;;20.05;;
76437;SDS011;65273;43.198;0.118;2023-06-14T13:45:23;21.55;;;20.35;;
76437;SDS011;65273;43.198;0.118;2023-06-14T13:47:48;20.98;;;19.80;;
76437;SDS011;65273;43.198;0.118;2023-06-14T13:50:13;21.60;;;20.40;;
76437;SDS011;65273;43.198;0.118;2023-06-14T13:52:39;21.33;;;20.13;;
76437;SDS011;65273;43.198;0.118;2023-06-14T13:55:04;21.20;;;20.00;;
76437;SDS011;65273;43.198;0.118;2023-06-14T13:57:30;22.50;;;21.00;;
76437;SDS011;65273;43.198;0.118;2023-06-14T13:59:55;22.30;;;20.38;;
76437;SDS011;65273;43.198;0.118;2023-06-14T14:02:25;21.50;;;20.27;;
76437;SDS011;65273;43.198;0.118;2023-06-14T14:04:51;22.13;;;20.83;;
76437;SDS011;65273;43.198;0.118;2023-06-14T14:07:18;22.15;;;20.85;;
76437;SDS011;65273;43.198;0.118;2023-06-14T14:09:45;21.80;;;20.60;;
76437;SDS011;65273;43.198;0.118;2023-06-14T14:12:12;23.35;;;21.52;;
76437;SDS011;65273;43.198;0.118;2023-06-14T14:14:37;21.75;;;20.55;;
76437;SDS011;65273;43.198;0.118;2023-06-14T14:17:02;22.00;;;20.80;;
76437;SDS011;65273;43.198;0.118;2023-06-14T14:19:28;22.45;;;21.15;;
76437;SDS011;65273;43.198;0.118;2023-06-14T14:21:53;23.88;;;22.05;;
76437;SDS011;65273;43.198;0.118;2023-06-14T14:24:18;22.55;;;21.25;;
76437;SDS011;65273;43.198;0.118;2023-06-14T14:26:44;22.67;;;21.38;;
76437;SDS011;65273;43.198;0.118;2023-06-14T14:29:12;22.70;;;21.40;;
76437;SDS011;65273;43.198;0.118;2023-06-14T14:31:37;23.05;;;21.75;;
76437;SDS011;65273;43.198;0.118;2023-06-14T14:34:03;23.00;;;21.70;;
76437;SDS011;65273;43.198;0.118;2023-06-14T14:36:28;23.10;;;21.70;;
76437;SDS011;65273;43.198;0.118;2023-06-14T14:38:53;23.63;;;22.23;;